Time;durP1;ratioP1;P1;durP2;ratioP2;P2;SDS_P1;SDS_P2;PMS_P1;PMS_P2;Temp;Humidity;BMP_temperature;BMP_pressure;BME280_temperature;BME280_humidity;BME280_pressure;Samples;Min_cycle;Max_cycle;Signal;HPM_P1;HPM_P2
2024/03/09 00:02:20;;;;;;;16.63;11.90;;;;;;;;;;5005515;28;20415;-81
2024/03/09 00:04:46;;;;;;;25.40;13.27;;;;;;;;;;4988472;28;20200;-81
2024/03/09 00:07:12;;;;;;;19.10;12.07;;;;;;;;;;5002851;28;20237;-80
2024/03/09 00:09:39;;;;;;;22.83;12.48;;;;;;;;;;5002038;28;20760;-81
2024/03/09 00:12:08;;;;;;;16.77;11.40;;;;;;;;;;5005815;28;20176;-81
2024/03/09 00:14:35;;;;;;;18.05;11.73;;;;;;;;;;5007207;28;20192;-81
2024/03/09 00:17:01;;;;;;;16.20;10.60;;;;;;;;;;5011342;28;20266;-81
2024/03/09 00:19:29;;;;;;;20.50;11.80;;;;;;;;;;5004910;28;20709;-81
2024/03/09 00:21:55;;;;;;;15.93;10.25;;;;;;;;;;5004898;28;20410;-81
2024/03/09 00:24:21;;;;;;;21.52;11.57;;;;;;;;;;5001980;28;20215;-81
2024/03/09 00:26:47;;;;;;;18.42;11.15;;;;;;;;;;5006410;28;20231;-81
2024/03/09 00:29:13;;;;;;;18.35;11.45;;;;;;;;;;5004666;28;20182;-82
2024/03/09 00:31:39;;;;;;;17.77;10.87;;;;;;;;;;4971542;28;20188;-80
2024/03/09 00:34:05;;;;;;;16.73;10.13;;;;;;;;;;5010374;28;20969;-84
2024/03/09 00:36:31;;;;;;;20.30;12.65;;;;;;;;;;5010889;28;20485;-81
2024/03/09 00:38:57;;;;;;;17.27;11.60;;;;;;;;;;5006303;28;20182;-80
2024/03/09 00:41:23;;;;;;;17.33;11.00;;;;;;;;;;5004875;28;20419;-81
2024/03/09 00:43:54;;;;;;;17.47;11.80;;;;;;;;;;5004129;28;20445;-80
2024/03/09 00:46:20;;;;;;;18.27;11.32;;;;;;;;;;5000773;28;20854;-81
2024/03/09 00:48:46;;;;;;;17.17;10.90;;;;;;;;;;4981797;28;20234;-82
2024/03/09 00:51:12;;;;;;;19.88;12.10;;;;;;;;;;5006947;28;20420;-82
2024/03/09 00:53:38;;;;;;;19.48;11.88;;;;;;;;;;5007908;28;20185;-82
2024/03/09 00:56:05;;;;;;;15.17;11.13;;;;;;;;;;4975793;28;20275;-81
2024/03/09 00:58:32;;;;;;;21.30;12.80;;;;;;;;;;5003634;28;20494;-82
2024/03/09 01:00:58;;;;;;;19.02;11.93;;;;;;;;;;5003884;28;20199;-80
2024/03/09 01:03:24;;;;;;;22.10;11.00;;;;;;;;;;4996572;28;20180;-81
2024/03/09 01:05:51;;;;;;;18.98;12.57;;;;;;;;;;4997860;28;20210;-81
2024/03/09 01:08:20;;;;;;;20.20;12.43;;;;;;;;;;5000805;28;20219;-81
2024/03/09 01:10:47;;;;;;;18.55;11.73;;;;;;;;;;5014506;28;20180;-81
2024/03/09 01:13:13;;;;;;;19.58;11.85;;;;;;;;;;4980570;28;20184;-81
2024/03/09 01:15:39;;;;;;;19.40;11.93;;;;;;;;;;5005954;28;20214;-81
2024/03/09 01:18:05;;;;;;;19.17;12.60;;;;;;;;;;4970758;28;20433;-81
2024/03/09 01:20:31;;;;;;;18.45;11.48;;;;;;;;;;4989218;28;20266;-82
2024/03/09 01:22:57;;;;;;;16.10;10.13;;;;;;;;;;5006316;28;20220;-82
2024/03/09 01:25:25;;;;;;;19.02;11.75;;;;;;;;;;5006993;28;20473;-82
2024/03/09 01:27:51;;;;;;;19.20;11.87;;;;;;;;;;5000225;28;20196;-81
2024/03/09 01:30:17;;;;;;;19.48;11.15;;;;;;;;;;4998660;28;20419;-81
2024/03/09 01:32:43;;;;;;;18.20;11.02;;;;;;;;;;4989293;28;20188;-80
2024/03/09 01:35:11;;;;;;;16.45;11.07;;;;;;;;;;5008192;28;20527;-81
2024/03/09 01:37:37;;;;;;;19.98;11.02;;;;;;;;;;5009634;28;20211;-82
2024/03/09 01:40:04;;;;;;;17.60;11.80;;;;;;;;;;5004813;28;20190;-81
2024/03/09 01:42:30;;;;;;;15.68;9.80;;;;;;;;;;4995967;28;20423;-82
2024/03/09 01:44:57;;;;;;;17.73;10.90;;;;;;;;;;4995176;28;20674;-82
2024/03/09 01:47:24;;;;;;;21.50;11.10;;;;;;;;;;5008387;28;20494;-81
2024/03/09 01:49:51;;;;;;;16.08;10.00;;;;;;;;;;5003873;28;20193;-82
2024/03/09 01:52:17;;;;;;;16.40;10.60;;;;;;;;;;4983586;28;20535;-81
2024/03/09 01:54:47;;;;;;;15.65;10.35;;;;;;;;;;5007269;28;20242;-81
2024/03/09 01:57:13;;;;;;;14.60;10.43;;;;;;;;;;5009558;28;20263;-81
2024/03/09 01:59:40;;;;;;;16.90;11.18;;;;;;;;;;5014907;28;20183;-81
2024/03/09 02:02:07;;;;;;;14.90;10.35;;;;;;;;;;5002108;28;20191;-81
2024/03/09 02:04:34;;;;;;;14.88;10.98;;;;;;;;;;5007449;28;20209;-82
2024/03/09 02:07:01;;;;;;;14.68;9.75;;;;;;;;;;4980576;28;20596;-82
2024/03/09 02:09:28;;;;;;;13.82;10.00;;;;;;;;;;4979453;28;20193;-80
2024/03/09 02:11:57;;;;;;;15.07;11.10;;;;;;;;;;5005932;28;20179;-82
2024/03/09 02:14:23;;;;;;;16.15;10.43;;;;;;;;;;4997651;28;20610;-82
2024/03/09 02:16:49;;;;;;;13.03;9.27;;;;;;;;;;4983597;28;20182;-82
2024/03/09 02:19:16;;;;;;;16.23;10.65;;;;;;;;;;4994742;28;20395;-81
2024/03/09 02:21:46;;;;;;;17.02;11.77;;;;;;;;;;4984404;28;20172;-82
2024/03/09 02:24:14;;;;;;;14.98;10.85;;;;;;;;;;4992865;28;20207;-80
2024/03/09 02:26:41;;;;;;;18.75;12.00;;;;;;;;;;4993517;28;20185;-81
2024/03/09 02:29:08;;;;;;;18.58;11.55;;;;;;;;;;4991158;28;20179;-82
2024/03/09 02:31:34;;;;;;;18.95;11.05;;;;;;;;;;4991436;28;20203;-82
2024/03/09 02:34:01;;;;;;;18.02;11.25;;;;;;;;;;4988904;28;20198;-80
2024/03/09 02:36:27;;;;;;;18.65;11.90;;;;;;;;;;4992780;28;20202;-81
2024/03/09 02:38:54;;;;;;;20.17;11.32;;;;;;;;;;4982674;28;20184;-81
2024/03/09 02:41:20;;;;;;;16.80;10.80;;;;;;;;;;4980523;28;20629;-81
2024/03/09 02:43:47;;;;;;;18.80;11.77;;;;;;;;;;5001442;28;20632;-82
2024/03/09 02:46:15;;;;;;;14.35;10.82;;;;;;;;;;4984826;28;20216;-81
2024/03/09 02:48:44;;;;;;;17.55;10.75;;;;;;;;;;4995955;28;20508;-81
2024/03/09 02:51:12;;;;;;;16.98;11.20;;;;;;;;;;4993790;28;20193;-81
2024/03/09 02:53:38;;;;;;;18.00;11.70;;;;;;;;;;4987408;28;20192;-81
2024/03/09 02:56:04;;;;;;;19.00;11.25;;;;;;;;;;4993168;28;20183;-82
2024/03/09 02:58:32;;;;;;;16.50;11.02;;;;;;;;;;5003401;28;20327;-82
2024/03/09 03:00:58;;;;;;;16.90;10.95;;;;;;;;;;4995179;28;20196;-80
2024/03/09 03:06:09;;;;;;;21.60;12.15;;;;;;;;;;4989520;28;20307;-81
2024/03/09 03:08:35;;;;;;;18.52;12.18;;;;;;;;;;4994023;28;20198;-82
2024/03/09 03:11:01;;;;;;;21.80;12.27;;;;;;;;;;4992397;28;20247;-82
2024/03/09 03:13:28;;;;;;;16.70;11.20;;;;;;;;;;4967210;28;20612;-82
2024/03/09 03:15:54;;;;;;;15.95;10.65;;;;;;;;;;4967306;28;20423;-82
2024/03/09 03:18:20;;;;;;;17.50;11.73;;;;;;;;;;4991462;28;20557;-82
2024/03/09 03:20:46;;;;;;;14.50;10.73;;;;;;;;;;4965766;28;20188;-82
2024/03/09 03:23:12;;;;;;;17.02;11.55;;;;;;;;;;4987621;28;20179;-81
2024/03/09 03:25:39;;;;;;;17.17;11.25;;;;;;;;;;4980871;28;20305;-81
2024/03/09 03:28:08;;;;;;;16.40;12.43;;;;;;;;;;4980101;28;20203;-82
2024/03/09 03:30:36;;;;;;;14.85;9.73;;;;;;;;;;4979577;28;20189;-82
2024/03/09 03:33:02;;;;;;;18.67;11.50;;;;;;;;;;4985526;28;20639;-82
2024/03/09 03:35:31;;;;;;;18.10;11.75;;;;;;;;;;4970369;28;20635;-82
2024/03/09 03:37:59;;;;;;;17.80;11.55;;;;;;;;;;4969844;28;20194;-82
2024/03/09 03:40:25;;;;;;;18.35;12.07;;;;;;;;;;4990154;28;20187;-82
2024/03/09 03:42:51;;;;;;;16.27;10.40;;;;;;;;;;4964446;28;20187;-82
2024/03/09 03:45:17;;;;;;;17.27;11.13;;;;;;;;;;4978656;28;20196;-82
2024/03/09 03:47:43;;;;;;;17.73;10.98;;;;;;;;;;4969087;28;20569;-82
2024/03/09 03:50:09;;;;;;;16.23;11.17;;;;;;;;;;4983967;28;20283;-81
2024/03/09 03:52:40;;;;;;;16.00;10.50;;;;;;;;;;4984244;28;20828;-81
2024/03/09 03:55:12;;;;;;;19.08;11.55;;;;;;;;;;4982496;28;20413;-81
2024/03/09 03:57:39;;;;;;;16.85;11.20;;;;;;;;;;4989952;28;20175;-81
2024/03/09 04:00:16;;;;;;;15.55;11.20;;;;;;;;;;4980873;28;20236;-81
2024/03/09 04:02:42;;;;;;;18.70;10.73;;;;;;;;;;4984771;28;20204;-81
2024/03/09 04:05:09;;;;;;;16.95;11.13;;;;;;;;;;4987211;28;20215;-82
2024/03/09 04:07:35;;;;;;;17.40;10.30;;;;;;;;;;4979667;28;20236;-81
2024/03/09 04:10:12;;;;;;;17.20;10.38;;;;;;;;;;4986279;28;20185;-81
2024/03/09 04:12:41;;;;;;;18.23;9.77;;;;;;;;;;4987382;28;20180;-81
2024/03/09 04:15:10;;;;;;;14.55;9.82;;;;;;;;;;4975362;28;20209;-81
2024/03/09 04:17:36;;;;;;;15.18;10.38;;;;;;;;;;4985495;28;20180;-82
2024/03/09 04:20:05;;;;;;;16.40;10.30;;;;;;;;;;4988744;28;20684;-81
2024/03/09 04:22:32;;;;;;;13.90;9.95;;;;;;;;;;4980164;28;20194;-81
2024/03/09 04:24:58;;;;;;;15.07;10.23;;;;;;;;;;4977563;28;20208;-80
2024/03/09 04:27:25;;;;;;;14.85;9.88;;;;;;;;;;4989771;28;20521;-82
2024/03/09 04:29:53;;;;;;;17.75;9.85;;;;;;;;;;4980268;28;20186;-82
2024/03/09 04:32:19;;;;;;;16.20;10.70;;;;;;;;;;4986479;28;20194;-80
2024/03/09 04:34:46;;;;;;;18.67;10.57;;;;;;;;;;4982062;28;20202;-81
2024/03/09 04:37:12;;;;;;;17.95;10.55;;;;;;;;;;4978789;28;20491;-81
2024/03/09 04:39:43;;;;;;;17.80;10.65;;;;;;;;;;4986647;28;20229;-81
2024/03/09 04:42:09;;;;;;;16.70;9.13;;;;;;;;;;4972050;28;20175;-82
2024/03/09 04:44:36;;;;;;;17.50;10.38;;;;;;;;;;4982846;28;20557;-82
2024/03/09 04:47:07;;;;;;;15.50;10.77;;;;;;;;;;4978733;28;20184;-82
2024/03/09 04:49:34;;;;;;;16.30;10.55;;;;;;;;;;4966404;28;20535;-82
2024/03/09 04:52:00;;;;;;;17.00;11.02;;;;;;;;;;4962076;28;20235;-81
2024/03/09 04:54:26;;;;;;;18.83;11.33;;;;;;;;;;4988130;28;20198;-81
2024/03/09 04:56:52;;;;;;;17.48;10.48;;;;;;;;;;4988775;28;20467;-82
2024/03/09 04:59:18;;;;;;;19.73;11.32;;;;;;;;;;4983677;28;20647;-81
2024/03/09 05:01:47;;;;;;;16.55;10.20;;;;;;;;;;4981687;28;20186;-82
2024/03/09 05:04:14;;;;;;;15.38;11.20;;;;;;;;;;4987444;28;20307;-80
2024/03/09 05:06:41;;;;;;;16.92;9.18;;;;;;;;;;4976072;28;20238;-81
2024/03/09 05:09:08;;;;;;;18.60;11.50;;;;;;;;;;5003558;28;20178;-82
2024/03/09 05:11:34;;;;;;;17.80;11.63;;;;;;;;;;5002033;28;20183;-81
2024/03/09 05:14:00;;;;;;;17.08;10.18;;;;;;;;;;5011378;28;20214;-81
2024/03/09 05:16:26;;;;;;;18.63;11.37;;;;;;;;;;5008127;28;20190;-82
2024/03/09 05:18:53;;;;;;;17.75;11.02;;;;;;;;;;4998143;28;20422;-81
2024/03/09 05:21:19;;;;;;;14.60;10.38;;;;;;;;;;4996535;28;20191;-81
2024/03/09 05:23:45;;;;;;;19.55;10.60;;;;;;;;;;5001336;28;20193;-81
2024/03/09 05:26:12;;;;;;;17.58;11.65;;;;;;;;;;4995505;28;20215;-82
2024/03/09 05:28:38;;;;;;;16.58;10.65;;;;;;;;;;4997474;28;20180;-82
2024/03/09 05:31:04;;;;;;;16.10;11.03;;;;;;;;;;5000404;28;20197;-81
2024/03/09 05:33:31;;;;;;;13.90;10.05;;;;;;;;;;5000631;28;20411;-81
2024/03/09 05:35:57;;;;;;;17.60;11.05;;;;;;;;;;4999256;28;20423;-81
2024/03/09 05:38:23;;;;;;;15.70;10.55;;;;;;;;;;4996805;28;20206;-81
2024/03/09 05:40:48;;;;;;;15.95;9.77;;;;;;;;;;5004433;28;20175;-81
2024/03/09 05:43:14;;;;;;;16.27;10.70;;;;;;;;;;4998353;28;20194;-81
2024/03/09 05:45:41;;;;;;;20.57;10.83;;;;;;;;;;5004982;28;20484;-81
2024/03/09 05:48:08;;;;;;;15.82;10.73;;;;;;;;;;4999890;28;20414;-81
2024/03/09 05:50:36;;;;;;;16.30;10.48;;;;;;;;;;5002074;28;20189;-81
2024/03/09 05:53:04;;;;;;;20.05;12.70;;;;;;;;;;4989846;28;20180;-81
2024/03/09 05:55:30;;;;;;;16.83;11.20;;;;;;;;;;5005226;28;20242;-82
2024/03/09 05:57:57;;;;;;;18.42;10.02;;;;;;;;;;4999743;28;20216;-81
2024/03/09 06:00:27;;;;;;;16.83;11.40;;;;;;;;;;5004704;28;20179;-81
2024/03/09 06:02:53;;;;;;;17.63;11.95;;;;;;;;;;5008862;28;20187;-82
2024/03/09 06:05:19;;;;;;;18.60;12.80;;;;;;;;;;5013221;28;20230;-81
2024/03/09 06:07:46;;;;;;;18.33;11.75;;;;;;;;;;4992338;28;20227;-81
2024/03/09 06:10:19;;;;;;;21.35;11.68;;;;;;;;;;4993787;28;20200;-81
2024/03/09 06:12:46;;;;;;;19.45;10.82;;;;;;;;;;4963605;28;20630;-81
2024/03/09 06:15:16;;;;;;;21.38;12.90;;;;;;;;;;4982704;28;20223;-81
2024/03/09 06:17:42;;;;;;;19.50;12.00;;;;;;;;;;4972628;28;20612;-81
2024/03/09 06:20:09;;;;;;;21.42;11.50;;;;;;;;;;4983727;28;20247;-80
2024/03/09 06:22:35;;;;;;;21.25;12.35;;;;;;;;;;4991619;28;20185;-81
2024/03/09 06:25:01;;;;;;;19.52;12.27;;;;;;;;;;4984579;28;20216;-82
2024/03/09 06:27:32;;;;;;;20.45;11.13;;;;;;;;;;4982491;28;20180;-81
2024/03/09 06:29:59;;;;;;;15.93;11.95;;;;;;;;;;4984901;28;20171;-81
2024/03/09 06:32:25;;;;;;;16.10;11.57;;;;;;;;;;4983627;28;20208;-81
2024/03/09 06:34:55;;;;;;;17.45;11.10;;;;;;;;;;4993328;28;20223;-81
2024/03/09 06:37:22;;;;;;;21.17;13.00;;;;;;;;;;4985383;28;20184;-82
2024/03/09 06:39:48;;;;;;;20.02;12.95;;;;;;;;;;4981591;28;20179;-82
2024/03/09 06:42:14;;;;;;;19.65;11.63;;;;;;;;;;4981736;28;20560;-82
2024/03/09 06:44:40;;;;;;;20.38;12.50;;;;;;;;;;4985379;28;20672;-82
2024/03/09 06:47:06;;;;;;;20.70;12.80;;;;;;;;;;4986008;28;20204;-82
2024/03/09 06:49:35;;;;;;;24.48;12.82;;;;;;;;;;4969074;28;20891;-80
2024/03/09 06:52:02;;;;;;;23.63;13.90;;;;;;;;;;4989879;28;20596;-82
2024/03/09 06:54:29;;;;;;;17.60;11.98;;;;;;;;;;4972947;28;20183;-81
2024/03/09 06:56:55;;;;;;;22.38;12.95;;;;;;;;;;4989722;28;20873;-81
2024/03/09 06:59:22;;;;;;;26.40;13.82;;;;;;;;;;4992259;28;20739;-81
2024/03/09 07:01:51;;;;;;;23.65;14.30;;;;;;;;;;4984497;28;20243;-81
2024/03/09 07:04:18;;;;;;;17.85;11.63;;;;;;;;;;4969037;28;20201;-81
2024/03/09 07:06:44;;;;;;;19.92;13.13;;;;;;;;;;4989194;28;20273;-81
2024/03/09 07:09:11;;;;;;;18.20;12.13;;;;;;;;;;5001677;28;20237;-81
2024/03/09 07:11:38;;;;;;;19.50;13.00;;;;;;;;;;5012071;28;20233;-82
2024/03/09 07:14:04;;;;;;;21.23;13.05;;;;;;;;;;4998602;28;20250;-81
2024/03/09 07:16:30;;;;;;;19.25;12.32;;;;;;;;;;5003331;28;20187;-81
2024/03/09 07:18:56;;;;;;;19.53;12.60;;;;;;;;;;5002679;28;20195;-81
2024/03/09 07:21:23;;;;;;;19.38;12.48;;;;;;;;;;4986693;28;20423;-80
2024/03/09 07:23:50;;;;;;;19.80;13.50;;;;;;;;;;5005998;28;20257;-81
2024/03/09 07:26:16;;;;;;;17.60;12.23;;;;;;;;;;5012821;28;20201;-81
2024/03/09 07:28:43;;;;;;;25.60;13.18;;;;;;;;;;5003791;28;20175;-81
2024/03/09 07:31:09;;;;;;;21.55;13.20;;;;;;;;;;5002408;28;20184;-81
2024/03/09 07:33:35;;;;;;;18.88;11.40;;;;;;;;;;5008360;28;20257;-81
2024/03/09 07:36:01;;;;;;;19.10;12.00;;;;;;;;;;5015341;28;20196;-81
2024/03/09 07:38:29;;;;;;;21.65;12.68;;;;;;;;;;5003540;28;20764;-82
2024/03/09 07:40:55;;;;;;;22.55;12.02;;;;;;;;;;5000125;28;20188;-81
2024/03/09 07:43:21;;;;;;;20.70;12.45;;;;;;;;;;5000442;28;20269;-82
2024/03/09 07:45:47;;;;;;;20.80;12.95;;;;;;;;;;5010931;28;20249;-82
2024/03/09 07:48:16;;;;;;;19.08;12.10;;;;;;;;;;5005104;28;20175;-81
2024/03/09 07:50:43;;;;;;;17.95;12.05;;;;;;;;;;5008009;28;20190;-81
2024/03/09 07:53:09;;;;;;;19.88;13.35;;;;;;;;;;5007481;28;20285;-80
2024/03/09 07:55:35;;;;;;;18.80;13.45;;;;;;;;;;5004397;28;20196;-80
2024/03/09 07:58:01;;;;;;;18.27;12.30;;;;;;;;;;5003165;28;20175;-80
2024/03/09 08:00:27;;;;;;;19.98;12.35;;;;;;;;;;5011088;28;20418;-81
2024/03/09 08:02:54;;;;;;;18.40;12.15;;;;;;;;;;5006750;28;20176;-80
2024/03/09 08:05:21;;;;;;;17.70;12.18;;;;;;;;;;4999107;28;20211;-81
2024/03/09 08:07:47;;;;;;;19.08;13.25;;;;;;;;;;5001991;28;20261;-80
2024/03/09 08:10:20;;;;;;;22.60;13.30;;;;;;;;;;4998718;28;20292;-79
2024/03/09 08:12:47;;;;;;;20.90;12.43;;;;;;;;;;5004976;28;20574;-80
2024/03/09 08:15:13;;;;;;;15.75;12.13;;;;;;;;;;5002554;28;20548;-81
2024/03/09 08:17:39;;;;;;;16.35;11.90;;;;;;;;;;5011964;28;20277;-84
2024/03/09 08:20:06;;;;;;;19.23;12.25;;;;;;;;;;5017498;28;20540;-87
2024/03/09 08:22:33;;;;;;;22.83;11.40;;;;;;;;;;5010222;28;20210;-87
2024/03/09 08:24:59;;;;;;;15.73;11.38;;;;;;;;;;4996353;28;20204;-82
2024/03/09 08:27:25;;;;;;;17.10;11.93;;;;;;;;;;4979673;28;20194;-79
2024/03/09 08:29:52;;;;;;;19.45;12.25;;;;;;;;;;4997735;28;20407;-81
2024/03/09 08:32:19;;;;;;;24.73;13.43;;;;;;;;;;4997238;28;20244;-80
2024/03/09 08:34:45;;;;;;;21.00;12.40;;;;;;;;;;5005561;28;20191;-81
2024/03/09 08:37:12;;;;;;;19.60;12.00;;;;;;;;;;4980261;28;20181;-80
2024/03/09 08:39:38;;;;;;;21.83;13.20;;;;;;;;;;4997141;28;20487;-81
2024/03/09 08:42:06;;;;;;;20.10;12.00;;;;;;;;;;4996797;28;20278;-81
2024/03/09 08:44:35;;;;;;;19.50;13.00;;;;;;;;;;5012442;28;20938;-81
2024/03/09 08:47:03;;;;;;;19.00;11.80;;;;;;;;;;5016194;28;20250;-81
2024/03/09 08:49:29;;;;;;;18.25;12.13;;;;;;;;;;5016576;28;20197;-79
2024/03/09 08:51:55;;;;;;;20.33;12.43;;;;;;;;;;5016751;28;20183;-81
2024/03/09 08:54:21;;;;;;;18.60;13.27;;;;;;;;;;5016845;28;20687;-80
2024/03/09 08:56:47;;;;;;;22.07;12.90;;;;;;;;;;5008726;28;20414;-80
2024/03/09 08:59:13;;;;;;;17.63;12.53;;;;;;;;;;4980112;28;20407;-81
2024/03/09 09:01:39;;;;;;;18.42;13.40;;;;;;;;;;4997332;28;20403;-81
2024/03/09 09:04:05;;;;;;;19.90;13.18;;;;;;;;;;4996745;28;20184;-80
2024/03/09 09:06:31;;;;;;;18.87;12.43;;;;;;;;;;4971874;28;20295;-80
2024/03/09 09:08:58;;;;;;;20.20;12.40;;;;;;;;;;4977790;28;20422;-80
2024/03/09 09:11:24;;;;;;;20.95;12.35;;;;;;;;;;4977701;28;20195;-80
2024/03/09 09:13:50;;;;;;;17.65;11.43;;;;;;;;;;4975866;28;20215;-81
2024/03/09 09:16:18;;;;;;;16.15;11.68;;;;;;;;;;4978252;28;20180;-81
2024/03/09 09:18:44;;;;;;;16.58;11.73;;;;;;;;;;4975881;28;20196;-81
2024/03/09 09:21:10;;;;;;;18.90;12.65;;;;;;;;;;4977693;28;20263;-80
2024/03/09 09:23:36;;;;;;;16.67;10.97;;;;;;;;;;4976013;28;20196;-80
2024/03/09 09:26:02;;;;;;;14.47;10.30;;;;;;;;;;4977144;28;20530;-81
2024/03/09 09:28:28;;;;;;;17.37;11.20;;;;;;;;;;4977508;28;20435;-80
2024/03/09 09:30:54;;;;;;;17.27;11.97;;;;;;;;;;4977575;28;20423;-80
2024/03/09 09:33:21;;;;;;;19.70;10.77;;;;;;;;;;4976281;28;20427;-81
2024/03/09 09:35:47;;;;;;;16.53;11.57;;;;;;;;;;4976828;28;20927;-81
2024/03/09 09:38:17;;;;;;;17.67;12.80;;;;;;;;;;4975026;28;20765;-81
2024/03/09 09:40:46;;;;;;;13.53;11.17;;;;;;;;;;4976586;28;20404;-81
2024/03/09 09:43:12;;;;;;;16.00;11.30;;;;;;;;;;4976439;28;20404;-81
2024/03/09 09:45:43;;;;;;;17.10;11.60;;;;;;;;;;4976625;28;20554;-80
2024/03/09 09:48:10;;;;;;;17.77;13.00;;;;;;;;;;4976724;28;20475;-81
2024/03/09 09:50:37;;;;;;;15.60;11.30;;;;;;;;;;4976498;28;20895;-81
2024/03/09 09:53:07;;;;;;;17.33;12.57;;;;;;;;;;4977125;28;20418;-80
2024/03/09 09:55:35;;;;;;;13.40;11.03;;;;;;;;;;4976610;28;20413;-80
2024/03/09 09:58:01;;;;;;;12.90;10.80;;;;;;;;;;4976634;28;20410;-81
2024/03/09 10:00:27;;;;;;;15.63;11.00;;;;;;;;;;4976129;28;20728;-82
2024/03/09 10:03:00;;;;;;;15.30;11.47;;;;;;;;;;4975505;28;20502;-82
2024/03/09 10:05:34;;;;;;;16.67;11.33;;;;;;;;;;4974508;28;20486;-82
2024/03/09 10:08:09;;;;;;;15.03;10.10;;;;;;;;;;4996130;28;20497;-82
2024/03/09 10:10:37;;;;;;;12.47;10.60;;;;;;;;;;4996090;28;20450;-81
2024/03/09 10:13:08;;;;;;;13.90;11.60;;;;;;;;;;4995977;28;20537;-81
2024/03/09 10:15:35;;;;;;;15.07;10.43;;;;;;;;;;4995674;28;20432;-81
2024/03/09 10:18:02;;;;;;;13.00;10.43;;;;;;;;;;4978484;28;20397;-81
2024/03/09 10:20:32;;;;;;;16.50;11.60;;;;;;;;;;4995767;28;20403;-81
2024/03/09 10:23:01;;;;;;;14.70;10.60;;;;;;;;;;4994027;28;20425;-79
2024/03/09 10:25:31;;;;;;;18.37;12.97;;;;;;;;;;4995466;28;20522;-80
2024/03/09 10:28:00;;;;;;;14.50;10.77;;;;;;;;;;4978271;28;20907;-81
2024/03/09 10:30:27;;;;;;;15.80;11.00;;;;;;;;;;4997298;28;20406;-81
2024/03/09 10:32:56;;;;;;;15.23;11.83;;;;;;;;;;4998395;28;20378;-81
2024/03/09 10:35:25;;;;;;;15.57;12.03;;;;;;;;;;4981695;28;20492;-80
2024/03/09 10:37:55;;;;;;;19.03;11.43;;;;;;;;;;4998638;28;20488;-81
2024/03/09 10:40:25;;;;;;;14.43;10.87;;;;;;;;;;4998935;28;20497;-80
2024/03/09 10:42:52;;;;;;;17.57;11.47;;;;;;;;;;4997219;28;20377;-80
2024/03/09 10:45:19;;;;;;;15.33;11.53;;;;;;;;;;4998594;28;20437;-80
2024/03/09 10:47:55;;;;;;;16.20;11.47;;;;;;;;;;4998105;28;20446;-81
2024/03/09 10:50:24;;;;;;;13.37;10.70;;;;;;;;;;4998669;28;20443;-80
2024/03/09 10:53:01;;;;;;;13.90;10.47;;;;;;;;;;4998549;28;20374;-81
2024/03/09 10:55:32;;;;;;;14.53;10.17;;;;;;;;;;4998403;28;20398;-80
2024/03/09 10:57:58;;;;;;;14.30;11.40;;;;;;;;;;4977836;28;20506;-81
2024/03/09 11:00:31;;;;;;;15.23;11.20;;;;;;;;;;4977741;28;20813;-80
2024/03/09 11:03:00;;;;;;;17.90;11.77;;;;;;;;;;4996377;28;20419;-81
2024/03/09 11:05:27;;;;;;;18.27;11.73;;;;;;;;;;4998117;28;20510;-80
2024/03/09 11:07:53;;;;;;;18.83;13.30;;;;;;;;;;4998845;28;20557;-80
2024/03/09 11:10:20;;;;;;;12.70;10.13;;;;;;;;;;4998170;28;20438;-80
2024/03/09 11:12:47;;;;;;;14.33;10.90;;;;;;;;;;4998204;28;20804;-81
2024/03/09 11:15:13;;;;;;;12.20;10.10;;;;;;;;;;4998470;28;20436;-81
2024/03/09 11:17:44;;;;;;;13.40;10.90;;;;;;;;;;4998352;28;20396;-80
2024/03/09 11:20:13;;;;;;;13.10;10.17;;;;;;;;;;4998882;28;20432;-81
2024/03/09 11:22:40;;;;;;;14.93;10.73;;;;;;;;;;4997783;28;20441;-81
2024/03/09 11:25:11;;;;;;;14.43;11.40;;;;;;;;;;4997966;28;20679;-79
2024/03/09 11:27:41;;;;;;;11.17;9.60;;;;;;;;;;4997514;28;20395;-81
2024/03/09 11:30:08;;;;;;;10.70;9.03;;;;;;;;;;4998694;28;20406;-83
2024/03/09 11:32:36;;;;;;;12.87;10.70;;;;;;;;;;4998086;28;20450;-79
2024/03/09 11:35:21;;;;;;;14.57;10.53;;;;;;;;;;4998509;28;20402;-80
2024/03/09 11:37:50;;;;;;;11.93;9.67;;;;;;;;;;4997934;28;20468;-81
2024/03/09 11:40:17;;;;;;;12.00;9.13;;;;;;;;;;4997392;28;20381;-82
2024/03/09 11:42:43;;;;;;;13.93;10.80;;;;;;;;;;4996406;28;20465;-81
2024/03/09 11:45:13;;;;;;;14.23;10.53;;;;;;;;;;4996234;28;20470;-81
2024/03/09 11:47:39;;;;;;;17.07;10.87;;;;;;;;;;4996961;28;20468;-81
2024/03/09 11:50:05;;;;;;;14.73;9.40;;;;;;;;;;4996881;28;20397;-81
2024/03/09 11:52:32;;;;;;;11.07;8.80;;;;;;;;;;4979945;28;20411;-81
2024/03/09 11:55:05;;;;;;;11.50;9.43;;;;;;;;;;4996557;28;20450;-81
2024/03/09 11:57:32;;;;;;;12.90;9.70;;;;;;;;;;4995579;28;20869;-80
2024/03/09 11:59:58;;;;;;;11.63;10.17;;;;;;;;;;4994083;28;20423;-82
2024/03/09 12:02:24;;;;;;;10.87;8.83;;;;;;;;;;4996750;28;20423;-81
2024/03/09 12:04:56;;;;;;;12.97;10.17;;;;;;;;;;4996298;28;20478;-81
2024/03/09 12:07:22;;;;;;;13.70;10.00;;;;;;;;;;4964244;28;20463;-79
2024/03/09 12:09:49;;;;;;;13.50;9.17;;;;;;;;;;4976796;28;20477;-79
2024/03/09 12:12:15;;;;;;;14.43;10.40;;;;;;;;;;4976606;28;20443;-79
2024/03/09 12:14:44;;;;;;;11.37;8.80;;;;;;;;;;4976019;28;20415;-81
2024/03/09 12:17:10;;;;;;;12.30;8.97;;;;;;;;;;4976321;28;20859;-81
2024/03/09 12:19:38;;;;;;;13.30;9.70;;;;;;;;;;4976554;28;20889;-80
2024/03/09 12:22:04;;;;;;;15.53;9.53;;;;;;;;;;4975741;28;20477;-80
2024/03/09 12:24:31;;;;;;;11.90;9.03;;;;;;;;;;4976068;28;20467;-80
2024/03/09 12:26:57;;;;;;;12.07;10.20;;;;;;;;;;4976224;28;20493;-80
2024/03/09 12:29:23;;;;;;;12.90;9.70;;;;;;;;;;4975615;28;20386;-81
2024/03/09 12:31:49;;;;;;;14.37;10.73;;;;;;;;;;4976420;28;20414;-79
2024/03/09 12:34:17;;;;;;;15.77;10.60;;;;;;;;;;4976962;28;20447;-80
2024/03/09 12:36:51;;;;;;;13.50;10.03;;;;;;;;;;4975443;28;20454;-80
2024/03/09 12:39:17;;;;;;;13.90;9.90;;;;;;;;;;4957373;29;20394;-80
2024/03/09 12:41:44;;;;;;;10.90;8.87;;;;;;;;;;4956770;29;20382;-80
2024/03/09 12:44:10;;;;;;;10.57;9.17;;;;;;;;;;4956033;29;20780;-80
2024/03/09 12:46:38;;;;;;;11.87;8.70;;;;;;;;;;4957242;29;20412;-81
2024/03/09 12:49:13;;;;;;;9.27;7.40;;;;;;;;;;4974334;28;20393;-81
2024/03/09 12:51:43;;;;;;;10.23;7.80;;;;;;;;;;4975180;28;20414;-81
2024/03/09 12:54:10;;;;;;;11.70;9.23;;;;;;;;;;4975956;28;20394;-81
2024/03/09 12:56:36;;;;;;;8.97;8.07;;;;;;;;;;4975904;28;20397;-80
2024/03/09 12:59:04;;;;;;;9.27;7.33;;;;;;;;;;4974320;28;20771;-81
2024/03/09 13:01:31;;;;;;;11.90;9.47;;;;;;;;;;4973513;28;20424;-81
2024/03/09 13:04:10;;;;;;;11.03;7.80;;;;;;;;;;4975124;28;20431;-82
2024/03/09 13:06:41;;;;;;;14.13;10.00;;;;;;;;;;4983403;28;20515;-81
2024/03/09 13:09:10;;;;;;;11.43;7.97;;;;;;;;;;4994812;28;20398;-80
2024/03/09 13:11:36;;;;;;;13.57;10.47;;;;;;;;;;4994099;28;20382;-80
2024/03/09 13:14:03;;;;;;;12.53;10.10;;;;;;;;;;4994195;28;20804;-81
2024/03/09 13:16:31;;;;;;;11.00;8.43;;;;;;;;;;4977674;28;20505;-82
2024/03/09 13:18:57;;;;;;;9.73;8.57;;;;;;;;;;4993762;28;20920;-80
2024/03/09 13:21:23;;;;;;;10.23;9.13;;;;;;;;;;4994380;28;20418;-81
2024/03/09 13:23:55;;;;;;;10.33;8.70;;;;;;;;;;4994173;28;20386;-80
2024/03/09 13:26:22;;;;;;;10.60;9.00;;;;;;;;;;4993732;28;20494;-79
2024/03/09 13:28:49;;;;;;;9.73;8.57;;;;;;;;;;4993752;28;20418;-82
2024/03/09 13:31:16;;;;;;;11.13;9.17;;;;;;;;;;4993991;28;20434;-81
2024/03/09 13:33:42;;;;;;;10.00;7.50;;;;;;;;;;4993695;28;20418;-79
2024/03/09 13:36:09;;;;;;;9.67;7.93;;;;;;;;;;4994018;28;20707;-82
2024/03/09 13:38:35;;;;;;;9.40;8.03;;;;;;;;;;4994122;28;20486;-82
2024/03/09 13:41:05;;;;;;;11.77;9.13;;;;;;;;;;4994094;28;20490;-80
2024/03/09 13:43:31;;;;;;;10.90;9.17;;;;;;;;;;4993290;28;20867;-81
2024/03/09 13:45:57;;;;;;;12.00;8.93;;;;;;;;;;4993767;28;20490;-80
2024/03/09 13:48:24;;;;;;;10.87;9.10;;;;;;;;;;4994202;28;20506;-80
2024/03/09 13:50:50;;;;;;;12.37;9.37;;;;;;;;;;4993005;28;20377;-82
2024/03/09 13:53:17;;;;;;;10.40;8.30;;;;;;;;;;4994350;28;20380;-81
2024/03/09 13:55:43;;;;;;;9.73;8.20;;;;;;;;;;4994193;28;20407;-80
2024/03/09 13:58:09;;;;;;;10.00;8.33;;;;;;;;;;4990503;28;20517;-82
2024/03/09 14:00:35;;;;;;;12.53;8.40;;;;;;;;;;4976580;28;20411;-81
2024/03/09 14:03:02;;;;;;;14.30;8.57;;;;;;;;;;4974993;28;20852;-80
2024/03/09 14:05:29;;;;;;;12.50;7.90;;;;;;;;;;4995843;28;20567;-81
2024/03/09 14:07:59;;;;;;;8.97;7.30;;;;;;;;;;4997434;28;20464;-81
2024/03/09 14:10:31;;;;;;;9.17;7.57;;;;;;;;;;4997887;28;20378;-82
2024/03/09 14:12:57;;;;;;;10.03;7.00;;;;;;;;;;4996696;28;20728;-81
2024/03/09 14:15:24;;;;;;;8.20;7.30;;;;;;;;;;4997492;28;20615;-80
2024/03/09 14:17:50;;;;;;;10.63;6.77;;;;;;;;;;4997551;28;20386;-80
2024/03/09 14:20:16;;;;;;;8.40;6.77;;;;;;;;;;4980219;28;20425;-81
2024/03/09 14:22:43;;;;;;;9.70;7.50;;;;;;;;;;4998100;28;20469;-82
2024/03/09 14:25:14;;;;;;;8.77;6.90;;;;;;;;;;4996820;28;20501;-81